sensor_id;sensor_type;location;lat;lon;timestamp;P1;durP1;ratioP1;P2;durP2;ratioP2
41229;SDS011;26964;50.428;19.218;2024-01-15T00:00:28;24.1;;;13.8;;
41229;SDS011;26964;50.428;19.218;2024-01-15T00:01:28;30.1;;;15.0;;
41229;SDS011;26964;50.428;19.218;2024-01-15T00:02:28;28.0;;;15.0;;
41229;SDS011;26964;50.428;19.218;2024-01-15T00:03:28;26.2;;;15.0;;
41229;SDS011;26964;50.428;19.218;2024-01-15T00:04:28;25.5;;;13.7;;
41229;SDS011;26964;50.428;19.218;2024-01-15T00:05:28;24.0;;;13.8;;
41229;SDS011;26964;50.428;19.218;2024-01-15T00:06:28;23.4;;;14.6;;
41229;SDS011;26964;50.428;19.218;2024-01-15T00:07:28;21.8;;;12.8;;
41229;SDS011;26964;50.428;19.218;2024-01-15T00:08:28;22.4;;;13.7;;
41229;SDS011;26964;50.428;19.218;2024-01-15T00:09:28;21.7;;;13.1;;
41229;SDS011;26964;50.428;19.218;2024-01-15T00:10:28;22.4;;;13.4;;
41229;SDS011;26964;50.428;19.218;2024-01-15T00:11:28;22.8;;;13.3;;
41229;SDS011;26964;50.428;19.218;2024-01-15T00:12:28;22.1;;;13.2;;
41229;SDS011;26964;50.428;19.218;2024-01-15T00:13:28;24.7;;;14.2;;
41229;SDS011;26964;50.428;19.218;2024-01-15T00:14:28;21.3;;;13.6;;
41229;SDS011;26964;50.428;19.218;2024-01-15T00:15:28;21.7;;;13.1;;
41229;SDS011;26964;50.428;19.218;2024-01-15T00:16:28;21.9;;;13.6;;
41229;SDS011;26964;50.428;19.218;2024-01-15T00:17:28;22.3;;;12.5;;
41229;SDS011;26964;50.428;19.218;2024-01-15T00:18:28;21.6;;;13.3;;
41229;SDS011;26964;50.428;19.218;2024-01-15T00:19:28;21.6;;;12.3;;
41229;SDS011;26964;50.428;19.218;2024-01-15T00:20:28;22.1;;;13.2;;
41229;SDS011;26964;50.428;19.218;2024-01-15T00:21:28;21.6;;;13.1;;
41229;SDS011;26964;50.428;19.218;2024-01-15T00:22:28;23.9;;;13.2;;
41229;SDS011;26964;50.428;19.218;2024-01-15T00:23:28;22.3;;;13.1;;
41229;SDS011;26964;50.428;19.218;2024-01-15T00:24:28;20.2;;;12.9;;
41229;SDS011;26964;50.428;19.218;2024-01-15T00:25:28;21.9;;;12.9;;
41229;SDS011;26964;50.428;19.218;2024-01-15T00:26:28;21.7;;;12.6;;
41229;SDS011;26964;50.428;19.218;2024-01-15T00:27:28;20.8;;;12.6;;
41229;SDS011;26964;50.428;19.218;2024-01-15T00:28:28;21.4;;;12.7;;
41229;SDS011;26964;50.428;19.218;2024-01-15T00:29:28;21.3;;;12.6;;
41229;SDS011;26964;50.428;19.218;2024-01-15T00:30:28;18.5;;;11.8;;
41229;SDS011;26964;50.428;19.218;2024-01-15T00:31:29;20.3;;;11.7;;
41229;SDS011;26964;50.428;19.218;2024-01-15T00:32:28;21.2;;;12.4;;
41229;SDS011;26964;50.428;19.218;2024-01-15T00:33:28;20.7;;;12.5;;
41229;SDS011;26964;50.428;19.218;2024-01-15T00:34:28;20.7;;;12.2;;
41229;SDS011;26964;50.428;19.218;2024-01-15T00:35:28;18.8;;;10.9;;
41229;SDS011;26964;50.428;19.218;2024-01-15T00:36:28;22.0;;;12.2;;
41229;SDS011;26964;50.428;19.218;2024-01-15T00:37:28;20.7;;;12.2;;
41229;SDS011;26964;50.428;19.218;2024-01-15T00:38:28;20.3;;;11.7;;
41229;SDS011;26964;50.428;19.218;2024-01-15T00:39:28;17.1;;;11.1;;
41229;SDS011;26964;50.428;19.218;2024-01-15T00:40:28;19.6;;;11.7;;
41229;SDS011;26964;50.428;19.218;2024-01-15T00:41:28;23.0;;;12.8;;
41229;SDS011;26964;50.428;19.218;2024-01-15T00:42:28;24.9;;;13.5;;
41229;SDS011;26964;50.428;19.218;2024-01-15T00:43:28;21.7;;;13.2;;
41229;SDS011;26964;50.428;19.218;2024-01-15T00:44:28;21.0;;;11.3;;
41229;SDS011;26964;50.428;19.218;2024-01-15T00:45:28;19.0;;;12.1;;
41229;SDS011;26964;50.428;19.218;2024-01-15T00:46:28;19.6;;;11.5;;
41229;SDS011;26964;50.428;19.218;2024-01-15T00:47:28;22.7;;;12.7;;
41229;SDS011;26964;50.428;19.218;2024-01-15T00:48:28;18.1;;;11.5;;
41229;SDS011;26964;50.428;19.218;2024-01-15T00:49:28;20.3;;;11.7;;
41229;SDS011;26964;50.428;19.218;2024-01-15T00:50:28;19.7;;;11.1;;
41229;SDS011;26964;50.428;19.218;2024-01-15T00:51:28;18.3;;;10.3;;
41229;SDS011;26964;50.428;19.218;2024-01-15T00:52:28;18.2;;;10.9;;
41229;SDS011;26964;50.428;19.218;2024-01-15T00:53:28;16.4;;;10.5;;
41229;SDS011;26964;50.428;19.218;2024-01-15T00:54:28;19.8;;;11.8;;
41229;SDS011;26964;50.428;19.218;2024-01-15T00:55:28;17.9;;;10.5;;
41229;SDS011;26964;50.428;19.218;2024-01-15T00:56:28;18.2;;;10.9;;
41229;SDS011;26964;50.428;19.218;2024-01-15T00:57:28;17.6;;;10.1;;
41229;SDS011;26964;50.428;19.218;2024-01-15T00:58:28;16.8;;;10.9;;
41229;SDS011;26964;50.428;19.218;2024-01-15T00:59:28;17.4;;;10.4;;
41229;SDS011;26964;50.428;19.218;2024-01-15T01:00:28;16.4;;;10.3;;
41229;SDS011;26964;50.428;19.218;2024-01-15T01:01:28;16.6;;;10.1;;
41229;SDS011;26964;50.428;19.218;2024-01-15T01:02:28;18.6;;;10.7;;
41229;SDS011;26964;50.428;19.218;2024-01-15T01:03:28;17.1;;;10.4;;
41229;SDS011;26964;50.428;19.218;2024-01-15T01:04:28;20.5;;;11.1;;
41229;SDS011;26964;50.428;19.218;2024-01-15T01:05:28;17.1;;;10.1;;
41229;SDS011;26964;50.428;19.218;2024-01-15T01:06:28;17.9;;;10.7;;
41229;SDS011;26964;50.428;19.218;2024-01-15T01:07:28;18.3;;;11.0;;
41229;SDS011;26964;50.428;19.218;2024-01-15T01:08:28;17.1;;;10.2;;
41229;SDS011;26964;50.428;19.218;2024-01-15T01:09:28;17.1;;;10.7;;
41229;SDS011;26964;50.428;19.218;2024-01-15T01:10:28;16.9;;;10.6;;
41229;SDS011;26964;50.428;19.218;2024-01-15T01:11:28;17.0;;;10.3;;
41229;SDS011;26964;50.428;19.218;2024-01-15T01:12:28;14.6;;;9.9;;
41229;SDS011;26964;50.428;19.218;2024-01-15T01:13:28;19.1;;;11.1;;
41229;SDS011;26964;50.428;19.218;2024-01-15T01:14:28;15.5;;;9.9;;
41229;SDS011;26964;50.428;19.218;2024-01-15T01:15:28;17.6;;;10.6;;
41229;SDS011;26964;50.428;19.218;2024-01-15T01:16:28;18.7;;;10.5;;
41229;SDS011;26964;50.428;19.218;2024-01-15T01:17:28;16.1;;;9.9;;
41229;SDS011;26964;50.428;19.218;2024-01-15T01:18:28;17.6;;;10.3;;
41229;SDS011;26964;50.428;19.218;2024-01-15T01:19:28;17.7;;;10.7;;
41229;SDS011;26964;50.428;19.218;2024-01-15T01:20:28;22.5;;;12.5;;
41229;SDS011;26964;50.428;19.218;2024-01-15T01:21:28;19.4;;;11.4;;
41229;SDS011;26964;50.428;19.218;2024-01-15T01:22:28;17.0;;;10.8;;
41229;SDS011;26964;50.428;19.218;2024-01-15T01:23:28;19.7;;;11.3;;
41229;SDS011;26964;50.428;19.218;2024-01-15T01:24:28;19.6;;;11.4;;
41229;SDS011;26964;50.428;19.218;2024-01-15T01:25:28;19.6;;;10.7;;
41229;SDS011;26964;50.428;19.218;2024-01-15T01:26:28;21.5;;;12.7;;
41229;SDS011;26964;50.428;19.218;2024-01-15T01:27:28;19.9;;;11.6;;
41229;SDS011;26964;50.428;19.218;2024-01-15T01:28:28;17.8;;;11.2;;
41229;SDS011;26964;50.428;19.218;2024-01-15T01:29:28;18.2;;;11.5;;
41229;SDS011;26964;50.428;19.218;2024-01-15T01:30:28;19.4;;;11.4;;
41229;SDS011;26964;50.428;19.218;2024-01-15T01:31:28;17.9;;;10.7;;
41229;SDS011;26964;50.428;19.218;2024-01-15T01:32:28;17.4;;;11.1;;
41229;SDS011;26964;50.428;19.218;2024-01-15T01:33:28;16.7;;;10.2;;
41229;SDS011;26964;50.428;19.218;2024-01-15T01:34:28;17.3;;;11.2;;
41229;SDS011;26964;50.428;19.218;2024-01-15T01:35:28;15.7;;;9.9;;
41229;SDS011;26964;50.428;19.218;2024-01-15T01:36:28;16.6;;;9.6;;
41229;SDS011;26964;50.428;19.218;2024-01-15T01:37:28;18.0;;;11.3;;
41229;SDS011;26964;50.428;19.218;2024-01-15T01:38:28;17.6;;;10.1;;
41229;SDS011;26964;50.428;19.218;2024-01-15T01:39:28;17.5;;;10.3;;
41229;SDS011;26964;50.428;19.218;2024-01-15T01:40:28;16.7;;;10.6;;
41229;SDS011;26964;50.428;19.218;2024-01-15T01:41:28;15.9;;;9.7;;
41229;SDS011;26964;50.428;19.218;2024-01-15T01:42:28;16.5;;;10.0;;
41229;SDS011;26964;50.428;19.218;2024-01-15T01:43:28;15.2;;;9.6;;
41229;SDS011;26964;50.428;19.218;2024-01-15T01:44:28;16.3;;;9.8;;
41229;SDS011;26964;50.428;19.218;2024-01-15T01:45:28;15.0;;;9.4;;
41229;SDS011;26964;50.428;19.218;2024-01-15T01:46:28;15.8;;;9.3;;
41229;SDS011;26964;50.428;19.218;2024-01-15T01:47:28;15.4;;;9.7;;
41229;SDS011;26964;50.428;19.218;2024-01-15T01:48:28;15.6;;;9.6;;
41229;SDS011;26964;50.428;19.218;2024-01-15T01:49:28;15.2;;;9.3;;
41229;SDS011;26964;50.428;19.218;2024-01-15T01:50:28;15.5;;;9.4;;
41229;SDS011;26964;50.428;19.218;2024-01-15T01:51:28;15.9;;;10.0;;
41229;SDS011;26964;50.428;19.218;2024-01-15T01:52:28;15.4;;;9.5;;
41229;SDS011;26964;50.428;19.218;2024-01-15T01:53:28;16.7;;;10.5;;
41229;SDS011;26964;50.428;19.218;2024-01-15T01:54:29;15.8;;;9.5;;
41229;SDS011;26964;50.428;19.218;2024-01-15T01:55:28;16.5;;;9.9;;
41229;SDS011;26964;50.428;19.218;2024-01-15T01:56:28;17.2;;;9.2;;
41229;SDS011;26964;50.428;19.218;2024-01-15T01:57:28;28.5;;;14.4;;
41229;SDS011;26964;50.428;19.218;2024-01-15T01:58:28;22.2;;;12.0;;
41229;SDS011;26964;50.428;19.218;2024-01-15T01:59:28;26.8;;;13.7;;
41229;SDS011;26964;50.428;19.218;2024-01-15T02:00:28;16.9;;;10.4;;
41229;SDS011;26964;50.428;19.218;2024-01-15T02:01:28;16.6;;;9.3;;
41229;SDS011;26964;50.428;19.218;2024-01-15T02:02:28;15.0;;;8.6;;
41229;SDS011;26964;50.428;19.218;2024-01-15T02:03:29;14.8;;;9.1;;
41229;SDS011;26964;50.428;19.218;2024-01-15T02:04:28;14.9;;;9.1;;
41229;SDS011;26964;50.428;19.218;2024-01-15T02:05:28;16.1;;;8.9;;
41229;SDS011;26964;50.428;19.218;2024-01-15T02:06:28;12.3;;;7.9;;
41229;SDS011;26964;50.428;19.218;2024-01-15T02:07:28;14.9;;;8.6;;
41229;SDS011;26964;50.428;19.218;2024-01-15T02:08:28;14.3;;;8.6;;
41229;SDS011;26964;50.428;19.218;2024-01-15T02:09:28;15.6;;;8.6;;
41229;SDS011;26964;50.428;19.218;2024-01-15T02:10:28;14.7;;;8.5;;
41229;SDS011;26964;50.428;19.218;2024-01-15T02:11:28;12.9;;;8.0;;
41229;SDS011;26964;50.428;19.218;2024-01-15T02:12:28;14.1;;;8.2;;
41229;SDS011;26964;50.428;19.218;2024-01-15T02:13:28;14.5;;;9.0;;
41229;SDS011;26964;50.428;19.218;2024-01-15T02:14:28;13.0;;;7.8;;
41229;SDS011;26964;50.428;19.218;2024-01-15T02:15:28;12.5;;;7.6;;
41229;SDS011;26964;50.428;19.218;2024-01-15T02:16:28;13.4;;;7.9;;
41229;SDS011;26964;50.428;19.218;2024-01-15T02:17:28;13.8;;;7.8;;
41229;SDS011;26964;50.428;19.218;2024-01-15T02:18:28;16.9;;;8.6;;
41229;SDS011;26964;50.428;19.218;2024-01-15T02:19:28;13.6;;;7.4;;
41229;SDS011;26964;50.428;19.218;2024-01-15T02:20:28;15.1;;;8.9;;
41229;SDS011;26964;50.428;19.218;2024-01-15T02:21:28;13.6;;;8.1;;
41229;SDS011;26964;50.428;19.218;2024-01-15T02:22:28;12.2;;;7.7;;
41229;SDS011;26964;50.428;19.218;2024-01-15T02:23:28;14.3;;;8.3;;
41229;SDS011;26964;50.428;19.218;2024-01-15T02:24:28;13.0;;;7.6;;
41229;SDS011;26964;50.428;19.218;2024-01-15T02:25:28;11.8;;;7.1;;
41229;SDS011;26964;50.428;19.218;2024-01-15T02:26:28;13.0;;;7.3;;
41229;SDS011;26964;50.428;19.218;2024-01-15T02:27:28;13.0;;;8.4;;
41229;SDS011;26964;50.428;19.218;2024-01-15T02:28:28;13.0;;;8.1;;
41229;SDS011;26964;50.428;19.218;2024-01-15T02:29:28;12.0;;;7.9;;
41229;SDS011;26964;50.428;19.218;2024-01-15T02:30:28;12.3;;;7.7;;
41229;SDS011;26964;50.428;19.218;2024-01-15T02:31:28;12.9;;;7.9;;
41229;SDS011;26964;50.428;19.218;2024-01-15T02:32:28;11.6;;;7.5;;
41229;SDS011;26964;50.428;19.218;2024-01-15T02:33:28;15.1;;;10.0;;
41229;SDS011;26964;50.428;19.218;2024-01-15T02:35:28;10.9;;;7.3;;
41229;SDS011;26964;50.428;19.218;2024-01-15T02:36:28;14.4;;;7.7;;
41229;SDS011;26964;50.428;19.218;2024-01-15T02:37:28;11.6;;;7.0;;
41229;SDS011;26964;50.428;19.218;2024-01-15T02:38:28;11.8;;;7.5;;
41229;SDS011;26964;50.428;19.218;2024-01-15T02:39:28;13.1;;;7.7;;
41229;SDS011;26964;50.428;19.218;2024-01-15T02:40:28;14.1;;;7.9;;
41229;SDS011;26964;50.428;19.218;2024-01-15T02:41:28;11.5;;;6.8;;
41229;SDS011;26964;50.428;19.218;2024-01-15T02:42:28;12.1;;;7.3;;
41229;SDS011;26964;50.428;19.218;2024-01-15T02:43:28;12.8;;;7.5;;
41229;SDS011;26964;50.428;19.218;2024-01-15T02:44:28;15.0;;;8.7;;
41229;SDS011;26964;50.428;19.218;2024-01-15T02:45:28;13.7;;;8.2;;
41229;SDS011;26964;50.428;19.218;2024-01-15T02:46:28;12.8;;;7.3;;
41229;SDS011;26964;50.428;19.218;2024-01-15T02:47:28;10.3;;;6.5;;
41229;SDS011;26964;50.428;19.218;2024-01-15T02:48:28;11.9;;;7.5;;
41229;SDS011;26964;50.428;19.218;2024-01-15T02:49:28;14.5;;;7.6;;
41229;SDS011;26964;50.428;19.218;2024-01-15T02:50:28;10.9;;;6.9;;
41229;SDS011;26964;50.428;19.218;2024-01-15T02:51:28;11.5;;;6.9;;
41229;SDS011;26964;50.428;19.218;2024-01-15T02:52:28;11.5;;;6.7;;
41229;SDS011;26964;50.428;19.218;2024-01-15T02:53:28;12.2;;;7.0;;
41229;SDS011;26964;50.428;19.218;2024-01-15T02:54:28;12.1;;;7.2;;
41229;SDS011;26964;50.428;19.218;2024-01-15T02:55:28;11.4;;;6.8;;
41229;SDS011;26964;50.428;19.218;2024-01-15T02:56:28;11.2;;;7.0;;
41229;SDS011;26964;50.428;19.218;2024-01-15T02:57:28;12.2;;;7.4;;
41229;SDS011;26964;50.428;19.218;2024-01-15T02:58:28;37.0;;;16.9;;
41229;SDS011;26964;50.428;19.218;2024-01-15T02:59:28;51.1;;;21.9;;
41229;SDS011;26964;50.428;19.218;2024-01-15T03:00:28;31.9;;;14.2;;
41229;SDS011;26964;50.428;19.218;2024-01-15T03:01:28;17.1;;;9.2;;
41229;SDS011;26964;50.428;19.218;2024-01-15T03:02:28;15.4;;;8.7;;
41229;SDS011;26964;50.428;19.218;2024-01-15T03:03:28;26.4;;;11.4;;
41229;SDS011;26964;50.428;19.218;2024-01-15T03:04:28;26.6;;;11.9;;
41229;SDS011;26964;50.428;19.218;2024-01-15T03:05:28;19.4;;;9.6;;
41229;SDS011;26964;50.428;19.218;2024-01-15T03:06:28;26.5;;;11.6;;
41229;SDS011;26964;50.428;19.218;2024-01-15T03:07:28;14.5;;;8.1;;
41229;SDS011;26964;50.428;19.218;2024-01-15T03:08:28;13.0;;;7.6;;
41229;SDS011;26964;50.428;19.218;2024-01-15T03:09:28;25.6;;;11.0;;
41229;SDS011;26964;50.428;19.218;2024-01-15T03:10:28;21.8;;;9.6;;
41229;SDS011;26964;50.428;19.218;2024-01-15T03:11:28;27.4;;;12.4;;
41229;SDS011;26964;50.428;19.218;2024-01-15T03:12:28;20.9;;;10.1;;
41229;SDS011;26964;50.428;19.218;2024-01-15T03:13:28;17.7;;;8.8;;
41229;SDS011;26964;50.428;19.218;2024-01-15T03:14:28;14.3;;;7.3;;
41229;SDS011;26964;50.428;19.218;2024-01-15T03:15:28;22.8;;;9.9;;
41229;SDS011;26964;50.428;19.218;2024-01-15T03:16:28;14.3;;;7.5;;
41229;SDS011;26964;50.428;19.218;2024-01-15T03:17:28;14.0;;;7.4;;
41229;SDS011;26964;50.428;19.218;2024-01-15T03:18:28;13.6;;;6.5;;
41229;SDS011;26964;50.428;19.218;2024-01-15T03:19:28;12.7;;;7.3;;
41229;SDS011;26964;50.428;19.218;2024-01-15T03:20:28;10.9;;;7.1;;
41229;SDS011;26964;50.428;19.218;2024-01-15T03:21:28;12.7;;;6.6;;
41229;SDS011;26964;50.428;19.218;2024-01-15T03:22:28;12.0;;;6.9;;
41229;SDS011;26964;50.428;19.218;2024-01-15T03:23:28;10.8;;;6.9;;
41229;SDS011;26964;50.428;19.218;2024-01-15T03:24:28;11.8;;;6.8;;
41229;SDS011;26964;50.428;19.218;2024-01-15T03:25:28;11.7;;;7.0;;
41229;SDS011;26964;50.428;19.218;2024-01-15T03:26:28;12.8;;;6.8;;
41229;SDS011;26964;50.428;19.218;2024-01-15T03:27:28;13.7;;;7.3;;
41229;SDS011;26964;50.428;19.218;2024-01-15T03:28:28;16.3;;;7.9;;
41229;SDS011;26964;50.428;19.218;2024-01-15T03:29:28;19.0;;;9.1;;
41229;SDS011;26964;50.428;19.218;2024-01-15T03:30:28;13.8;;;7.5;;
41229;SDS011;26964;50.428;19.218;2024-01-15T03:31:28;11.7;;;6.8;;
41229;SDS011;26964;50.428;19.218;2024-01-15T03:32:28;10.0;;;6.1;;
41229;SDS011;26964;50.428;19.218;2024-01-15T03:33:28;15.5;;;7.6;;
41229;SDS011;26964;50.428;19.218;2024-01-15T03:34:28;14.4;;;7.6;;
41229;SDS011;26964;50.428;19.218;2024-01-15T03:35:28;17.4;;;8.6;;
41229;SDS011;26964;50.428;19.218;2024-01-15T03:36:28;12.4;;;7.6;;
41229;SDS011;26964;50.428;19.218;2024-01-15T03:37:28;13.5;;;7.6;;
41229;SDS011;26964;50.428;19.218;2024-01-15T03:38:28;21.4;;;10.9;;
41229;SDS011;26964;50.428;19.218;2024-01-15T03:39:28;13.4;;;7.9;;
41229;SDS011;26964;50.428;19.218;2024-01-15T03:40:28;12.6;;;7.1;;
41229;SDS011;26964;50.428;19.218;2024-01-15T03:41:28;11.1;;;7.2;;
41229;SDS011;26964;50.428;19.218;2024-01-15T03:42:28;35.7;;;15.6;;
41229;SDS011;26964;50.428;19.218;2024-01-15T03:43:28;20.6;;;10.1;;
41229;SDS011;26964;50.428;19.218;2024-01-15T03:44:28;26.6;;;12.6;;
41229;SDS011;26964;50.428;19.218;2024-01-15T03:45:28;22.9;;;11.7;;
41229;SDS011;26964;50.428;19.218;2024-01-15T03:46:28;18.7;;;10.2;;
41229;SDS011;26964;50.428;19.218;2024-01-15T03:47:28;20.7;;;11.1;;
41229;SDS011;26964;50.428;19.218;2024-01-15T03:48:28;14.1;;;7.8;;
41229;SDS011;26964;50.428;19.218;2024-01-15T03:49:28;21.4;;;10.6;;
41229;SDS011;26964;50.428;19.218;2024-01-15T03:50:28;16.2;;;8.2;;
41229;SDS011;26964;50.428;19.218;2024-01-15T03:51:28;12.4;;;7.5;;
41229;SDS011;26964;50.428;19.218;2024-01-15T03:52:28;13.6;;;7.5;;
41229;SDS011;26964;50.428;19.218;2024-01-15T03:53:28;13.3;;;7.0;;
41229;SDS011;26964;50.428;19.218;2024-01-15T03:54:28;15.0;;;7.5;;
41229;SDS011;26964;50.428;19.218;2024-01-15T03:55:28;25.2;;;10.6;;
41229;SDS011;26964;50.428;19.218;2024-01-15T03:56:28;16.0;;;8.0;;
41229;SDS011;26964;50.428;19.218;2024-01-15T03:57:28;12.0;;;7.0;;
41229;SDS011;26964;50.428;19.218;2024-01-15T03:58:28;11.8;;;7.2;;
41229;SDS011;26964;50.428;19.218;2024-01-15T03:59:28;14.9;;;8.1;;
41229;SDS011;26964;50.428;19.218;2024-01-15T04:00:28;35.4;;;14.6;;
41229;SDS011;26964;50.428;19.218;2024-01-15T04:01:28;25.8;;;12.1;;
41229;SDS011;26964;50.428;19.218;2024-01-15T04:02:28;17.0;;;8.8;;
41229;SDS011;26964;50.428;19.218;2024-01-15T04:03:28;12.1;;;7.1;;
41229;SDS011;26964;50.428;19.218;2024-01-15T04:04:28;12.1;;;7.3;;
41229;SDS011;26964;50.428;19.218;2024-01-15T04:05:28;14.8;;;8.7;;
41229;SDS011;26964;50.428;19.218;2024-01-15T04:06:28;12.4;;;6.5;;
41229;SDS011;26964;50.428;19.218;2024-01-15T04:07:28;10.8;;;6.8;;
41229;SDS011;26964;50.428;19.218;2024-01-15T04:08:28;13.9;;;8.3;;
41229;SDS011;26964;50.428;19.218;2024-01-15T04:09:28;9.9;;;6.8;;
41229;SDS011;26964;50.428;19.218;2024-01-15T04:10:28;11.9;;;6.6;;
41229;SDS011;26964;50.428;19.218;2024-01-15T04:11:28;11.4;;;6.7;;
41229;SDS011;26964;50.428;19.218;2024-01-15T04:12:28;9.6;;;6.6;;
41229;SDS011;26964;50.428;19.218;2024-01-15T04:13:28;11.9;;;6.9;;
41229;SDS011;26964;50.428;19.218;2024-01-15T04:14:28;13.1;;;7.1;;
41229;SDS011;26964;50.428;19.218;2024-01-15T04:15:28;12.5;;;7.0;;
41229;SDS011;26964;50.428;19.218;2024-01-15T04:16:28;10.7;;;6.9;;
41229;SDS011;26964;50.428;19.218;2024-01-15T04:17:28;10.2;;;6.9;;
41229;SDS011;26964;50.428;19.218;2024-01-15T04:18:28;12.3;;;7.2;;
41229;SDS011;26964;50.428;19.218;2024-01-15T04:19:28;11.9;;;8.0;;
41229;SDS011;26964;50.428;19.218;2024-01-15T04:20:28;11.5;;;7.4;;
41229;SDS011;26964;50.428;19.218;2024-01-15T04:21:28;12.4;;;8.4;;
41229;SDS011;26964;50.428;19.218;2024-01-15T04:22:28;10.3;;;7.0;;
41229;SDS011;26964;50.428;19.218;2024-01-15T04:23:28;12.1;;;7.4;;
41229;SDS011;26964;50.428;19.218;2024-01-15T04:24:28;10.9;;;7.2;;
41229;SDS011;26964;50.428;19.218;2024-01-15T04:25:28;11.4;;;7.3;;
41229;SDS011;26964;50.428;19.218;2024-01-15T04:26:28;10.7;;;6.9;;
41229;SDS011;26964;50.428;19.218;2024-01-15T04:27:27;12.4;;;7.5;;
41229;SDS011;26964;50.428;19.218;2024-01-15T04:28:28;10.8;;;6.7;;
41229;SDS011;26964;50.428;19.218;2024-01-15T04:29:28;12.8;;;7.2;;
41229;SDS011;26964;50.428;19.218;2024-01-15T04:30:27;21.5;;;11.6;;
41229;SDS011;26964;50.428;19.218;2024-01-15T04:31:28;14.3;;;8.1;;
41229;SDS011;26964;50.428;19.218;2024-01-15T04:32:28;17.3;;;9.4;;
41229;SDS011;26964;50.428;19.218;2024-01-15T04:33:28;12.4;;;7.9;;
41229;SDS011;26964;50.428;19.218;2024-01-15T04:34:28;16.5;;;8.9;;
41229;SDS011;26964;50.428;19.218;2024-01-15T04:35:27;11.3;;;7.2;;
41229;SDS011;26964;50.428;19.218;2024-01-15T04:36:27;12.1;;;7.5;;
41229;SDS011;26964;50.428;19.218;2024-01-15T04:37:27;12.7;;;7.8;;
41229;SDS011;26964;50.428;19.218;2024-01-15T04:38:28;11.0;;;6.7;;
41229;SDS011;26964;50.428;19.218;2024-01-15T04:39:28;17.4;;;8.5;;
41229;SDS011;26964;50.428;19.218;2024-01-15T04:40:27;12.3;;;7.4;;
41229;SDS011;26964;50.428;19.218;2024-01-15T04:41:28;13.2;;;7.6;;
41229;SDS011;26964;50.428;19.218;2024-01-15T04:42:27;13.2;;;7.8;;
41229;SDS011;26964;50.428;19.218;2024-01-15T04:43:27;9.7;;;6.5;;
41229;SDS011;26964;50.428;19.218;2024-01-15T04:44:28;10.2;;;6.9;;
41229;SDS011;26964;50.428;19.218;2024-01-15T04:45:27;14.6;;;8.8;;
41229;SDS011;26964;50.428;19.218;2024-01-15T04:46:27;12.9;;;7.4;;
41229;SDS011;26964;50.428;19.218;2024-01-15T04:47:29;10.1;;;7.2;;
41229;SDS011;26964;50.428;19.218;2024-01-15T04:48:28;10.8;;;7.2;;
41229;SDS011;26964;50.428;19.218;2024-01-15T04:49:28;13.3;;;6.4;;
41229;SDS011;26964;50.428;19.218;2024-01-15T04:50:28;11.6;;;6.7;;
41229;SDS011;26964;50.428;19.218;2024-01-15T04:51:27;11.7;;;7.0;;
41229;SDS011;26964;50.428;19.218;2024-01-15T04:52:27;11.7;;;7.4;;
41229;SDS011;26964;50.428;19.218;2024-01-15T04:53:27;10.3;;;6.5;;
41229;SDS011;26964;50.428;19.218;2024-01-15T04:54:27;11.0;;;6.3;;
41229;SDS011;26964;50.428;19.218;2024-01-15T04:55:27;12.1;;;6.9;;
41229;SDS011;26964;50.428;19.218;2024-01-15T04:56:27;10.4;;;6.7;;
41229;SDS011;26964;50.428;19.218;2024-01-15T04:57:27;11.4;;;6.1;;
41229;SDS011;26964;50.428;19.218;2024-01-15T04:58:28;13.9;;;7.4;;
41229;SDS011;26964;50.428;19.218;2024-01-15T04:59:28;13.3;;;7.1;;
41229;SDS011;26964;50.428;19.218;2024-01-15T05:00:27;11.5;;;6.6;;
41229;SDS011;26964;50.428;19.218;2024-01-15T05:02:28;11.8;;;7.0;;
41229;SDS011;26964;50.428;19.218;2024-01-15T05:03:27;11.7;;;6.8;;
41229;SDS011;26964;50.428;19.218;2024-01-15T05:04:27;11.6;;;7.0;;
41229;SDS011;26964;50.428;19.218;2024-01-15T05:05:27;12.7;;;6.9;;
41229;SDS011;26964;50.428;19.218;2024-01-15T05:06:28;11.4;;;7.0;;
41229;SDS011;26964;50.428;19.218;2024-01-15T05:07:27;12.8;;;7.8;;
41229;SDS011;26964;50.428;19.218;2024-01-15T05:08:28;14.2;;;7.1;;
41229;SDS011;26964;50.428;19.218;2024-01-15T05:09:27;12.6;;;8.1;;
41229;SDS011;26964;50.428;19.218;2024-01-15T05:10:27;29.7;;;14.8;;
41229;SDS011;26964;50.428;19.218;2024-01-15T05:11:27;19.4;;;10.0;;
41229;SDS011;26964;50.428;19.218;2024-01-15T05:12:27;15.2;;;8.5;;
41229;SDS011;26964;50.428;19.218;2024-01-15T05:13:28;16.0;;;8.4;;
41229;SDS011;26964;50.428;19.218;2024-01-15T05:14:27;16.4;;;7.7;;
41229;SDS011;26964;50.428;19.218;2024-01-15T05:15:27;14.6;;;8.1;;
41229;SDS011;26964;50.428;19.218;2024-01-15T05:16:27;13.1;;;7.3;;
41229;SDS011;26964;50.428;19.218;2024-01-15T05:17:27;12.0;;;6.9;;
41229;SDS011;26964;50.428;19.218;2024-01-15T05:18:27;13.4;;;7.4;;
41229;SDS011;26964;50.428;19.218;2024-01-15T05:19:27;11.9;;;7.0;;
41229;SDS011;26964;50.428;19.218;2024-01-15T05:20:27;16.3;;;9.6;;
41229;SDS011;26964;50.428;19.218;2024-01-15T05:21:27;13.0;;;7.6;;
41229;SDS011;26964;50.428;19.218;2024-01-15T05:22:27;13.3;;;7.7;;
41229;SDS011;26964;50.428;19.218;2024-01-15T05:23:27;11.7;;;7.1;;
41229;SDS011;26964;50.428;19.218;2024-01-15T05:24:28;12.4;;;7.7;;
41229;SDS011;26964;50.428;19.218;2024-01-15T05:25:27;13.4;;;8.0;;
41229;SDS011;26964;50.428;19.218;2024-01-15T05:26:27;15.1;;;7.9;;
41229;SDS011;26964;50.428;19.218;2024-01-15T05:27:27;12.1;;;7.9;;
41229;SDS011;26964;50.428;19.218;2024-01-15T05:28:27;12.3;;;8.0;;
41229;SDS011;26964;50.428;19.218;2024-01-15T05:29:27;12.9;;;7.7;;
41229;SDS011;26964;50.428;19.218;2024-01-15T05:30:27;12.3;;;7.5;;
41229;SDS011;26964;50.428;19.218;2024-01-15T05:31:27;13.9;;;8.1;;
41229;SDS011;26964;50.428;19.218;2024-01-15T05:32:28;13.3;;;7.9;;
41229;SDS011;26964;50.428;19.218;2024-01-15T05:33:27;14.6;;;7.6;;
41229;SDS011;26964;50.428;19.218;2024-01-15T05:34:27;12.4;;;7.9;;
41229;SDS011;26964;50.428;19.218;2024-01-15T05:35:28;14.1;;;8.4;;
41229;SDS011;26964;50.428;19.218;2024-01-15T05:36:27;14.7;;;8.5;;
41229;SDS011;26964;50.428;19.218;2024-01-15T05:37:27;14.3;;;7.8;;
41229;SDS011;26964;50.428;19.218;2024-01-15T05:38:27;14.6;;;8.3;;
41229;SDS011;26964;50.428;19.218;2024-01-15T05:39:27;13.6;;;8.3;;
41229;SDS011;26964;50.428;19.218;2024-01-15T05:40:27;13.7;;;8.6;;
41229;SDS011;26964;50.428;19.218;2024-01-15T05:41:27;16.1;;;9.6;;
41229;SDS011;26964;50.428;19.218;2024-01-15T05:42:27;13.2;;;8.5;;
41229;SDS011;26964;50.428;19.218;2024-01-15T05:43:27;13.0;;;7.7;;
41229;SDS011;26964;50.428;19.218;2024-01-15T05:44:27;13.7;;;8.4;;
41229;SDS011;26964;50.428;19.218;2024-01-15T05:45:28;13.6;;;8.6;;
41229;SDS011;26964;50.428;19.218;2024-01-15T05:46:28;14.3;;;8.4;;
41229;SDS011;26964;50.428;19.218;2024-01-15T05:47:27;13.9;;;8.5;;
41229;SDS011;26964;50.428;19.218;2024-01-15T05:48:27;17.0;;;9.6;;
41229;SDS011;26964;50.428;19.218;2024-01-15T05:49:27;19.5;;;12.1;;
41229;SDS011;26964;50.428;19.218;2024-01-15T05:50:27;23.4;;;12.6;;
41229;SDS011;26964;50.428;19.218;2024-01-15T05:51:27;15.9;;;9.3;;
41229;SDS011;26964;50.428;19.218;2024-01-15T05:52:27;15.8;;;8.9;;
41229;SDS011;26964;50.428;19.218;2024-01-15T05:53:27;14.7;;;8.5;;
41229;SDS011;26964;50.428;19.218;2024-01-15T05:54:28;13.8;;;8.7;;
41229;SDS011;26964;50.428;19.218;2024-01-15T05:55:27;14.2;;;8.3;;
41229;SDS011;26964;50.428;19.218;2024-01-15T05:56:27;14.9;;;8.4;;
41229;SDS011;26964;50.428;19.218;2024-01-15T05:57:28;15.6;;;9.5;;
41229;SDS011;26964;50.428;19.218;2024-01-15T05:58:27;17.5;;;10.3;;
41229;SDS011;26964;50.428;19.218;2024-01-15T05:59:27;17.2;;;9.9;;
41229;SDS011;26964;50.428;19.218;2024-01-15T06:00:27;15.4;;;8.7;;
41229;SDS011;26964;50.428;19.218;2024-01-15T06:01:27;14.6;;;9.1;;